createdAt,value
2019-01-10T00:01:19.331Z,2.40
2019-01-10T00:04:00.249Z,2.40
2019-01-10T00:06:40.825Z,2.40
2019-01-10T00:09:21.218Z,2.40
2019-01-10T00:12:01.909Z,2.40
2019-01-10T00:14:42.710Z,2.40
2019-01-10T00:17:23.454Z,2.40
2019-01-10T00:20:04.418Z,2.40
2019-01-10T00:22:45.717Z,2.50
2019-01-10T00:25:26.690Z,2.50
2019-01-10T00:28:07.319Z,2.40
2019-01-10T00:30:48.515Z,2.40
2019-01-10T00:33:29.002Z,2.40
2019-01-10T00:36:09.354Z,2.40
2019-01-10T00:38:50.121Z,2.40
2019-01-10T00:41:30.616Z,2.40
2019-01-10T00:44:11.395Z,2.40
2019-01-10T00:46:51.794Z,2.50
2019-01-10T00:49:32.416Z,2.50
2019-01-10T00:52:13.287Z,2.50
2019-01-10T00:54:53.874Z,2.50
2019-01-10T00:57:34.571Z,2.40
2019-01-10T01:00:15.349Z,2.40
2019-01-10T01:02:56.158Z,2.30
2019-01-10T01:05:37.090Z,2.10
2019-01-10T01:08:17.721Z,2.10
2019-01-10T01:10:58.386Z,2.10
2019-01-10T01:13:38.982Z,2.00
2019-01-10T01:16:19.365Z,1.90
2019-01-10T01:19:00.401Z,1.90
2019-01-10T01:21:41.442Z,1.90
2019-01-10T01:24:21.973Z,1.80
2019-01-10T01:27:02.750Z,1.80
2019-01-10T01:29:43.206Z,1.80
2019-01-10T01:32:23.685Z,1.70
2019-01-10T01:35:04.061Z,1.70
2019-01-10T01:37:44.734Z,1.70
2019-01-10T01:40:25.432Z,1.70
2019-01-10T01:43:07.424Z,1.60
2019-01-10T01:45:48.818Z,1.60
2019-01-10T01:48:29.965Z,1.50
2019-01-10T01:51:10.685Z,1.60
2019-01-10T01:53:51.217Z,1.60
2019-01-10T01:56:31.977Z,1.60
2019-01-10T01:59:12.551Z,1.60
2019-01-10T02:01:53.485Z,1.60
2019-01-10T02:04:34.417Z,1.60
2019-01-10T02:07:15.151Z,1.70
2019-01-10T02:09:55.930Z,1.70
2019-01-10T02:12:36.386Z,1.70
2019-01-10T02:15:17.267Z,1.70
2019-01-10T02:17:57.678Z,1.70
2019-01-10T02:20:38.385Z,1.70
2019-01-10T02:23:19.522Z,1.70
2019-01-10T02:25:59.998Z,1.70
2019-01-10T02:28:40.857Z,1.80
2019-01-10T02:31:21.241Z,1.80
2019-01-10T02:34:01.655Z,1.80
2019-01-10T02:36:42.135Z,1.80
2019-01-10T02:39:22.834Z,1.80
2019-01-10T02:42:03.198Z,1.80
2019-01-10T02:44:43.758Z,1.70
2019-01-10T02:47:24.519Z,1.50
2019-01-10T02:50:05.373Z,1.70
2019-01-10T02:52:45.765Z,1.70
2019-01-10T02:55:26.773Z,1.60
2019-01-10T02:58:07.263Z,1.60
2019-01-10T03:00:47.962Z,1.60
2019-01-10T03:03:28.251Z,1.70
2019-01-10T03:06:09.168Z,1.50
2019-01-10T03:08:50.079Z,1.70
2019-01-10T03:11:30.837Z,1.70
2019-01-10T03:14:11.226Z,1.60
2019-01-10T03:16:51.978Z,1.70
2019-01-10T03:19:32.759Z,1.70
2019-01-10T03:22:13.743Z,1.60
2019-01-10T03:24:54.419Z,1.70
2019-01-10T03:27:35.318Z,1.60
2019-01-10T03:30:16.167Z,1.60
2019-01-10T03:32:57.159Z,1.60
2019-01-10T03:35:38.083Z,1.60
2019-01-10T03:38:18.835Z,1.60
2019-01-10T03:40:59.563Z,1.70
2019-01-10T03:43:46.711Z,1.60
2019-01-10T03:46:22.979Z,1.60
2019-01-10T03:49:03.515Z,1.60
2019-01-10T03:51:44.235Z,1.60
2019-01-10T03:54:24.734Z,1.60
2019-01-10T03:57:05.529Z,1.50
2019-01-10T03:59:46.726Z,1.50
2019-01-10T04:02:27.230Z,1.50
2019-01-10T04:05:08.090Z,1.50
2019-01-10T04:07:48.933Z,1.40
2019-01-10T04:10:29.794Z,1.40
2019-01-10T04:13:10.591Z,1.40
2019-01-10T04:15:51.315Z,1.40
2019-01-10T04:18:31.688Z,1.40
2019-01-10T04:21:17.577Z,1.30
2019-01-10T04:23:54.610Z,1.40
2019-01-10T04:26:35.378Z,1.40
2019-01-10T04:29:15.986Z,1.40
2019-01-10T04:31:56.730Z,1.50
2019-01-10T04:34:37.833Z,1.50
2019-01-10T04:37:18.190Z,1.50
2019-01-10T04:39:58.654Z,1.40
2019-01-10T04:42:39.193Z,1.30
2019-01-10T04:45:20.052Z,1.50
2019-01-10T04:48:00.797Z,1.50
2019-01-10T04:50:41.477Z,1.50
2019-01-10T04:53:21.900Z,1.40
2019-01-10T04:56:02.927Z,1.50
2019-01-10T04:58:43.774Z,1.40
2019-01-10T05:01:24.261Z,1.40
2019-01-10T05:04:04.722Z,1.40
2019-01-10T05:06:45.510Z,1.40
2019-01-10T05:09:25.972Z,1.40
2019-01-10T05:12:06.621Z,1.40
2019-01-10T05:14:47.188Z,1.30
2019-01-10T05:17:30.076Z,1.30
2019-01-10T05:20:09.982Z,1.30
2019-01-10T05:22:50.698Z,1.40
2019-01-10T05:25:31.897Z,1.30
2019-01-10T05:28:12.669Z,1.30
2019-01-10T05:30:53.101Z,1.30
2019-01-10T05:33:33.751Z,1.30
2019-01-10T05:36:14.530Z,1.30
2019-01-10T05:38:55.058Z,1.30
2019-01-10T05:41:35.447Z,1.30
2019-01-10T05:44:26.166Z,1.30
2019-01-10T05:46:58.655Z,1.30
2019-01-10T05:49:39.152Z,1.30
2019-01-10T05:52:20.315Z,1.30
2019-01-10T05:55:01.133Z,1.30
2019-01-10T05:57:41.429Z,1.40
2019-01-10T06:00:22.030Z,1.30
2019-01-10T06:03:02.571Z,1.30
2019-01-10T06:05:43.723Z,1.30
2019-01-10T06:08:24.962Z,1.30
2019-01-10T06:11:05.513Z,1.30
2019-01-10T06:13:46.480Z,1.30
2019-01-10T06:16:26.802Z,1.30
2019-01-10T06:19:07.445Z,1.30
2019-01-10T06:21:48.578Z,1.30
2019-01-10T06:24:29.045Z,1.30
2019-01-10T06:27:09.542Z,1.30
2019-01-10T06:29:50.347Z,1.30
2019-01-10T06:32:30.871Z,1.30
2019-01-10T06:35:11.577Z,1.20
2019-01-10T06:37:51.902Z,1.20
2019-01-10T06:40:32.814Z,1.20
2019-01-10T06:43:13.647Z,1.30
2019-01-10T06:45:54.626Z,1.20
2019-01-10T06:48:35.334Z,1.20
2019-01-10T06:51:16.007Z,1.20
2019-01-10T06:53:56.656Z,1.10
2019-01-10T06:56:37.453Z,1.10
2019-01-10T06:59:18.270Z,1.10
2019-01-10T07:01:59.099Z,1.10
2019-01-10T07:04:40.244Z,1.10
2019-01-10T07:07:21.460Z,1.20
2019-01-10T07:10:02.142Z,1.10
2019-01-10T07:12:43.035Z,1.10
2019-01-10T07:15:23.956Z,1.10
2019-01-10T07:18:04.938Z,1.10
2019-01-10T07:20:45.574Z,1.10
2019-01-10T07:23:26.729Z,1.10
2019-01-10T07:26:07.461Z,1.10
2019-01-10T07:28:47.983Z,1.10
2019-01-10T07:31:28.948Z,1.20
2019-01-10T07:34:09.547Z,1.10
2019-01-10T07:36:50.356Z,1.10
2019-01-10T07:39:32.635Z,1.20
2019-01-10T07:42:13.675Z,1.20
2019-01-10T07:45:02.476Z,1.30
2019-01-10T07:50:40.131Z,1.30
2019-01-10T07:53:20.567Z,1.30
2019-01-10T07:56:01.367Z,1.30
2019-01-10T07:58:42.616Z,1.30
2019-01-10T08:01:23.471Z,1.20
2019-01-10T08:04:04.062Z,1.30
2019-01-10T08:06:44.514Z,1.30
2019-01-10T08:09:25.283Z,1.30
2019-01-10T08:12:06.147Z,1.30
2019-01-10T08:14:46.689Z,1.30
2019-01-10T08:17:27.570Z,1.30
2019-01-10T08:20:08.266Z,1.30
2019-01-10T08:22:49.428Z,1.40
2019-01-10T08:25:30.210Z,1.40
2019-01-10T08:28:10.823Z,1.40
2019-01-10T08:30:52.505Z,1.30
2019-01-10T08:33:33.526Z,1.40
2019-01-10T08:36:13.907Z,1.40
2019-01-10T08:38:55.171Z,1.40
2019-01-10T08:41:36.155Z,1.40
2019-01-10T08:44:16.748Z,1.40
2019-01-10T08:46:57.038Z,1.50
2019-01-10T08:49:37.623Z,1.40
2019-01-10T08:52:18.277Z,1.50
2019-01-10T08:54:59.351Z,1.50
2019-01-10T08:57:39.662Z,1.50
2019-01-10T09:00:20.211Z,1.50
2019-01-10T09:03:00.951Z,1.50
2019-01-10T09:05:41.642Z,1.50
2019-01-10T09:08:22.394Z,1.60
2019-01-10T09:11:03.534Z,1.50
2019-01-10T09:13:44.242Z,1.60
2019-01-10T09:16:25.431Z,1.60
2019-01-10T09:19:06.238Z,1.60
2019-01-10T09:21:47.438Z,1.60
2019-01-10T09:24:28.200Z,1.60
2019-01-10T09:27:09.022Z,1.70
2019-01-10T09:29:50.150Z,1.70
2019-01-10T09:32:31.017Z,1.70
2019-01-10T09:35:11.626Z,1.70
2019-01-10T09:37:51.991Z,1.70
2019-01-10T09:40:32.387Z,1.60
2019-01-10T09:43:13.127Z,1.70
2019-01-10T09:45:53.927Z,1.70
2019-01-10T09:48:34.430Z,1.50
2019-01-10T09:51:14.974Z,1.60
2019-01-10T09:53:55.810Z,1.70
2019-01-10T09:56:36.093Z,1.70
2019-01-10T09:59:16.913Z,1.70
2019-01-10T10:01:57.448Z,1.80
2019-01-10T10:04:37.846Z,1.80
2019-01-10T10:07:18.628Z,1.80
2019-01-10T10:09:59.150Z,1.90
2019-01-10T10:12:40.112Z,1.90
2019-01-10T10:15:20.807Z,2.00
2019-01-10T10:18:01.448Z,2.00
2019-01-10T10:20:42.229Z,2.00
2019-01-10T10:23:26.928Z,2.00
2019-01-10T10:26:04.919Z,2.00
2019-01-10T10:28:45.359Z,2.10
2019-01-10T10:31:26.542Z,2.00
2019-01-10T10:34:07.418Z,2.00
2019-01-10T10:36:47.857Z,2.00
2019-01-10T10:39:28.726Z,2.10
2019-01-10T10:42:09.087Z,2.10
2019-01-10T10:44:49.870Z,2.00
2019-01-10T10:47:30.322Z,2.20
2019-01-10T10:50:11.122Z,2.20
2019-01-10T10:52:51.945Z,2.20
2019-01-10T10:55:32.754Z,2.30
2019-01-10T10:58:13.447Z,2.30
2019-01-10T11:00:53.947Z,2.30
2019-01-10T11:03:34.542Z,2.30
2019-01-10T11:06:15.278Z,2.30
2019-01-10T11:08:56.146Z,2.30
2019-01-10T11:11:36.959Z,2.40
2019-01-10T11:14:17.354Z,2.40
2019-01-10T11:16:58.141Z,2.40
2019-01-10T11:19:39.357Z,2.30
2019-01-10T11:22:20.315Z,2.40
2019-01-10T11:25:00.766Z,2.40
2019-01-10T11:27:41.425Z,2.60
2019-01-10T11:30:22.533Z,2.50
2019-01-10T11:33:02.823Z,2.60
2019-01-10T11:35:43.234Z,2.50
2019-01-10T11:38:23.914Z,2.40
2019-01-10T11:41:04.739Z,2.40
2019-01-10T11:43:45.798Z,2.50
2019-01-10T11:46:26.220Z,2.50
2019-01-10T11:49:06.754Z,2.60
2019-01-10T11:51:47.770Z,2.60
2019-01-10T11:54:28.550Z,2.70
2019-01-10T11:57:09.390Z,2.80
2019-01-10T11:59:50.262Z,2.90
2019-01-10T12:02:36.235Z,2.90
2019-01-10T12:05:13.719Z,3.00
2019-01-10T12:07:54.264Z,2.90
2019-01-10T12:10:34.929Z,2.90
2019-01-10T12:13:15.507Z,2.90
2019-01-10T12:15:56.332Z,2.80
2019-01-10T12:18:36.702Z,2.80
2019-01-10T12:21:17.582Z,2.90
2019-01-10T12:23:58.719Z,2.90
2019-01-10T12:26:39.528Z,3.00
2019-01-10T12:29:20.291Z,3.20
2019-01-10T12:32:01.034Z,3.20
2019-01-10T12:34:41.735Z,3.20
2019-01-10T12:37:22.586Z,3.10
2019-01-10T12:40:03.319Z,3.00
2019-01-10T12:42:43.782Z,3.00
2019-01-10T12:45:24.927Z,3.00
2019-01-10T12:48:05.835Z,3.00
2019-01-10T12:50:46.970Z,2.90
2019-01-10T12:53:27.865Z,3.00
2019-01-10T12:56:08.615Z,2.90
2019-01-10T12:58:49.651Z,2.90
2019-01-10T13:01:30.631Z,2.90
2019-01-10T13:04:11.125Z,2.90
2019-01-10T13:06:51.749Z,2.90
2019-01-10T13:09:32.574Z,2.90
2019-01-10T13:12:13.202Z,3.00
2019-01-10T13:14:54.127Z,2.90
2019-01-10T13:17:34.595Z,2.90
2019-01-10T13:20:15.618Z,2.90
2019-01-10T13:22:56.493Z,2.90
2019-01-10T13:25:37.201Z,2.90
2019-01-10T13:28:17.823Z,2.90
2019-01-10T13:30:58.452Z,2.80
2019-01-10T13:33:39.222Z,2.90
2019-01-10T13:36:19.995Z,2.80
2019-01-10T13:39:00.557Z,2.70
2019-01-10T13:41:41.175Z,2.70
2019-01-10T13:44:21.886Z,2.70
2019-01-10T13:47:02.456Z,2.70
2019-01-10T13:49:42.886Z,2.70
2019-01-10T13:52:23.249Z,2.70
2019-01-10T13:55:04.341Z,2.70
2019-01-10T13:57:45.624Z,2.70
2019-01-10T14:00:26.028Z,2.60
2019-01-10T14:03:11.577Z,2.60
2019-01-10T14:05:49.123Z,2.60
2019-01-10T14:08:29.843Z,2.60
2019-01-10T14:11:10.594Z,2.60
2019-01-10T14:13:51.663Z,2.60
2019-01-10T14:16:32.377Z,2.60
2019-01-10T14:19:13.194Z,2.60
2019-01-10T14:21:54.079Z,2.60
2019-01-10T14:24:34.565Z,2.70
2019-01-10T14:27:15.094Z,2.60
2019-01-10T14:29:55.543Z,2.70
2019-01-10T14:32:36.287Z,2.60
2019-01-10T14:35:17.187Z,2.60
2019-01-10T14:37:57.874Z,2.60
2019-01-10T14:40:38.583Z,2.60
2019-01-10T14:43:19.910Z,2.60
2019-01-10T14:46:00.686Z,2.60
2019-01-10T14:48:41.819Z,2.50
2019-01-10T14:51:22.751Z,2.50
2019-01-10T14:54:03.593Z,2.50
2019-01-10T14:56:44.618Z,2.50
2019-01-10T14:59:25.453Z,2.50
2019-01-10T15:02:06.186Z,2.50
2019-01-10T15:04:46.434Z,2.40
2019-01-10T15:07:26.831Z,2.50
2019-01-10T15:10:07.109Z,2.40
2019-01-10T15:12:47.949Z,2.40
2019-01-10T15:15:28.707Z,2.40
2019-01-10T15:18:09.110Z,2.20
2019-01-10T15:20:49.984Z,2.30
2019-01-10T15:23:30.346Z,2.40
2019-01-10T15:26:10.675Z,2.30
2019-01-10T15:28:51.451Z,2.30
2019-01-10T15:31:32.383Z,2.30
2019-01-10T15:34:13.407Z,2.20
2019-01-10T15:36:54.449Z,2.30
2019-01-10T15:39:35.190Z,2.30
2019-01-10T15:42:15.734Z,2.30
2019-01-10T15:44:56.694Z,2.30
2019-01-10T15:47:37.606Z,2.30
2019-01-10T15:50:18.023Z,2.20
2019-01-10T15:52:58.664Z,2.20
2019-01-10T15:55:39.010Z,2.20
2019-01-10T15:58:19.630Z,2.20
2019-01-10T16:01:00.481Z,2.20
2019-01-10T16:03:41.271Z,2.20
2019-01-10T16:06:22.103Z,2.20
2019-01-10T16:09:02.399Z,2.20
2019-01-10T16:11:43.102Z,2.20
2019-01-10T16:14:24.062Z,2.20
2019-01-10T16:17:04.743Z,2.10
2019-01-10T16:19:45.494Z,2.10
2019-01-10T16:22:26.137Z,2.10
2019-01-10T16:25:07.184Z,2.20
2019-01-10T16:27:47.791Z,2.20
2019-01-10T16:30:28.523Z,2.10
2019-01-10T16:33:09.197Z,2.10
2019-01-10T16:35:49.985Z,2.10
2019-01-10T16:38:30.767Z,2.10
2019-01-10T16:41:11.435Z,2.00
2019-01-10T16:43:52.392Z,1.90
2019-01-10T16:46:33.049Z,2.00
2019-01-10T16:49:14.135Z,2.00
2019-01-10T16:51:54.539Z,2.00
2019-01-10T16:54:34.902Z,2.00
2019-01-10T16:57:15.650Z,2.10
2019-01-10T16:59:56.074Z,2.00
2019-01-10T17:02:36.502Z,2.00
2019-01-10T17:05:17.104Z,2.10
2019-01-10T17:07:57.845Z,2.00
2019-01-10T17:10:38.743Z,2.00
2019-01-10T17:13:19.349Z,2.00
2019-01-10T17:16:00.109Z,2.00
2019-01-10T17:18:40.792Z,2.00
2019-01-10T17:21:21.699Z,2.00
2019-01-10T17:24:02.063Z,2.10
2019-01-10T17:26:42.847Z,2.00
2019-01-10T17:29:23.145Z,2.00
2019-01-10T17:32:03.696Z,2.00
2019-01-10T17:34:44.575Z,1.90
2019-01-10T17:37:25.502Z,1.80
2019-01-10T17:40:06.536Z,1.80
2019-01-10T17:42:47.874Z,1.80
2019-01-10T17:45:28.195Z,1.90
2019-01-10T17:48:11.392Z,1.90
2019-01-10T17:50:51.911Z,1.90
2019-01-10T17:53:32.337Z,1.90
2019-01-10T17:56:12.990Z,1.90
2019-01-10T17:58:53.838Z,1.90
2019-01-10T18:01:34.779Z,2.00
2019-01-10T18:04:15.229Z,2.00
2019-01-10T18:06:55.639Z,2.00
2019-01-10T18:09:36.541Z,2.00
2019-01-10T18:12:17.359Z,2.00
2019-01-10T18:14:57.877Z,2.00
2019-01-10T18:17:38.857Z,2.00
2019-01-10T18:20:19.334Z,2.00
2019-01-10T18:23:00.252Z,2.00
2019-01-10T18:25:40.958Z,2.00
2019-01-10T18:28:21.623Z,2.00
2019-01-10T18:31:02.402Z,2.00
2019-01-10T18:33:43.056Z,2.00
2019-01-10T18:36:23.762Z,2.00
2019-01-10T18:39:04.699Z,2.00
2019-01-10T18:41:45.362Z,1.90
2019-01-10T18:44:26.314Z,1.90
2019-01-10T18:47:07.327Z,1.90
2019-01-10T18:49:47.817Z,1.90
2019-01-10T18:52:28.482Z,1.90
2019-01-10T18:55:09.373Z,2.00
2019-01-10T18:57:50.670Z,2.00
2019-01-10T19:00:31.341Z,2.00
2019-01-10T19:03:12.114Z,2.00
2019-01-10T19:05:53.087Z,2.00
2019-01-10T19:08:34.066Z,2.00
2019-01-10T19:11:15.107Z,2.00
2019-01-10T19:13:56.047Z,2.10
2019-01-10T19:16:36.632Z,2.10
2019-01-10T19:19:17.274Z,2.10
2019-01-10T19:21:58.278Z,2.10
2019-01-10T19:24:39.189Z,2.00
2019-01-10T19:27:20.283Z,2.00
2019-01-10T19:30:01.231Z,2.00
2019-01-10T19:32:42.419Z,2.00
2019-01-10T19:35:23.419Z,2.00
2019-01-10T19:38:03.869Z,2.00
2019-01-10T19:40:44.275Z,1.90
2019-01-10T19:43:24.842Z,2.00
2019-01-10T19:46:05.422Z,2.00
2019-01-10T19:48:46.136Z,2.00
2019-01-10T19:51:26.821Z,2.00
2019-01-10T19:54:07.485Z,2.00
2019-01-10T19:56:48.114Z,2.10
2019-01-10T19:59:28.972Z,2.00
2019-01-10T20:02:09.291Z,2.10
2019-01-10T20:04:49.874Z,2.10
2019-01-10T20:07:31.198Z,2.10
2019-01-10T20:10:12.404Z,2.10
2019-01-10T20:12:53.144Z,2.00
2019-01-10T20:15:34.172Z,2.00
2019-01-10T20:18:16.420Z,2.00
2019-01-10T20:20:57.379Z,2.00
2019-01-10T20:23:38.322Z,2.00
2019-01-10T20:26:19.087Z,2.00
2019-01-10T20:29:00.054Z,2.00
2019-01-10T20:31:40.550Z,2.00
2019-01-10T20:34:21.431Z,2.00
2019-01-10T20:37:02.219Z,2.00
2019-01-10T20:39:43.486Z,2.00
2019-01-10T20:42:24.282Z,2.00
2019-01-10T20:45:04.758Z,2.00
2019-01-10T20:47:45.126Z,2.00
2019-01-10T20:50:26.213Z,2.00
2019-01-10T20:53:07.225Z,2.00
2019-01-10T20:55:48.075Z,2.00
2019-01-10T20:58:28.814Z,2.00
2019-01-10T21:01:09.666Z,1.90
2019-01-10T21:03:50.147Z,1.90
2019-01-10T21:06:30.886Z,1.90
2019-01-10T21:09:13.177Z,1.90
2019-01-10T21:11:53.950Z,1.90
2019-01-10T21:14:34.770Z,2.00
2019-01-10T21:17:15.342Z,1.80
2019-01-10T21:19:56.057Z,1.90
2019-01-10T21:22:37.027Z,1.80
2019-01-10T21:25:17.804Z,1.90
2019-01-10T21:27:58.865Z,1.80
2019-01-10T21:30:39.844Z,1.90
2019-01-10T21:33:20.414Z,1.90
2019-01-10T21:36:01.233Z,1.80
2019-01-10T21:38:42.030Z,1.80
2019-01-10T21:41:22.898Z,1.80
2019-01-10T21:44:03.287Z,1.90
2019-01-10T21:46:44.295Z,1.90
2019-01-10T21:49:24.649Z,1.80
2019-01-10T21:52:05.025Z,1.80
2019-01-10T21:54:45.658Z,1.80
2019-01-10T21:57:30.418Z,1.80
2019-01-10T22:00:09.010Z,1.80
2019-01-10T22:02:49.460Z,1.80
2019-01-10T22:05:29.802Z,1.80
2019-01-10T22:08:10.210Z,1.80
2019-01-10T22:10:51.219Z,1.80
2019-01-10T22:13:31.978Z,1.70
2019-01-10T22:16:12.838Z,1.80
2019-01-10T22:18:53.742Z,1.80
2019-01-10T22:21:34.389Z,1.80
2019-01-10T22:24:15.202Z,1.80
2019-01-10T22:26:56.047Z,1.80
2019-01-10T22:29:36.783Z,1.80
2019-01-10T22:32:17.666Z,1.80
2019-01-10T22:34:58.375Z,1.80
2019-01-10T22:37:38.960Z,1.80
2019-01-10T22:40:19.826Z,1.80
2019-01-10T22:43:01.039Z,1.80
2019-01-10T22:45:41.967Z,1.70
2019-01-10T22:48:22.801Z,1.90
2019-01-10T22:51:03.615Z,1.80
2019-01-10T22:53:44.410Z,1.80
2019-01-10T22:56:25.227Z,1.80
2019-01-10T22:59:06.485Z,1.90
2019-01-10T23:01:47.615Z,1.80
2019-01-10T23:04:29.400Z,1.80
2019-01-10T23:07:11.979Z,1.80
2019-01-10T23:09:54.241Z,1.80
2019-01-10T23:12:35.308Z,1.80
2019-01-10T23:15:17.912Z,1.90
2019-01-10T23:17:58.942Z,1.80
2019-01-10T23:20:39.349Z,1.80
2019-01-10T23:23:20.138Z,1.90
2019-01-10T23:26:00.873Z,1.90
2019-01-10T23:28:41.701Z,1.90
2019-01-10T23:31:22.531Z,1.90
2019-01-10T23:34:03.086Z,1.90
2019-01-10T23:36:45.446Z,1.90
2019-01-10T23:39:26.619Z,1.90
2019-01-10T23:42:07.086Z,2.00
2019-01-10T23:44:47.863Z,2.00
2019-01-10T23:47:28.371Z,1.90
2019-01-10T23:50:08.838Z,1.90
2019-01-10T23:52:50.161Z,1.90
2019-01-10T23:55:30.929Z,1.90
2019-01-10T23:58:11.834Z,1.90
